To NAV CANADA Home Page Login to a new session Search on AWWS site Feedback and Comments Disclaimer Vers la page française équivalente Tips FAQ What's new on the site To the Forecasts and Observations / NOTAM section To "File a Flight Plan" website Publications and other links Update of the User's profile FIC Telephone Numbers My Weather Data Folder Route Weather Data Regional Weather Data Local Weather Data To the Forecasts and Observations / NOTAM section
Request Generated 07/23/2016 at 16:54:31 UTC . Weather information available at that time is displayed.

METAR/TAF

EARLTON/EARLTON (TIMISKAMING REGIONAL)/ON    (show WxCam)

METAR CYXR 231600Z AUTO 34013G19KT 9SM FEW035 SCT043 23/16 A2995 RMK
SLP143 DENSITY ALT 1800FT=
METAR CYXR 231500Z AUTO 33014G19KT 9SM CLR 22/15 A2994 RMK SLP141
DENSITY ALT 1700FT=
METAR CYXR 231400Z AUTO 33014G19KT 9SM FEW022 SCT030 BKN037 20/16
A2993 RMK SLP140 DENSITY ALT 1500FT=

TAF CYXR 231143Z 2312/2324 31010KT P6SM BKN025 BKN200 TEMPO 2312/2314
BKN020
FM231400 31010KT P6SM BKN030 TEMPO 2314/2316 BKN020
RMK FCST BASED ON AUTO OBS. NXT FCST BY 231800Z=
Your time UTC time
Weather data provided by Environment Canada and NAV CANADA